Latest Weather Observations for Warruwi

IDD60801

Issued at 7:05 am CST Wednesday 23 July 2014 (issued every 30 minutes, with the page automatically refreshed every 10 minutes)

About weather observations | Map of weather stations | Latest weather observations for NT | Other Formats
Station Details ID: 014401 Name: WARRUWI AIRPORT Lat: -11.65 Lon: 133.38 Height: 19.2 m
Data from the previous 72 hours. | See also: Recent months at Warruwi
Date/Time
CST
Temp
°C
App
Temp
°C
Dew
Point
Rel
Hum
%
Delta-T
°C
Wind Press
QNH
hPa
Press
MSL
hPa
Rain
since 9 am
mm
Dir
 
Spd
km/h
Gust
km/h
Spd
kts
Gust
kts
23/07:00am 20.4 19.7 18.3 88 1.3 ESE 19 26 10 14 1014.8 - 0.0
23/06:30am 20.3 19.5 18.1 87 1.4 ESE 19 28 10 15 1014.7 1014.6 0.0
23/06:00am 20.5 19.7 18.1 86 1.5 ESE 19 26 10 14 1014.6 1014.5 0.0
23/05:30am 20.7 20.2 17.9 84 1.7 ESE 17 26 9 14 1014.4 1014.3 0.0
23/05:00am 21.0 20.9 17.8 82 2.0 SE 15 22 8 12 1014.1 - 0.0
23/04:30am 21.3 20.4 17.7 80 2.2 SE 19 26 10 14 1013.9 1013.8 0.0
23/04:00am 21.4 20.4 17.6 79 2.3 SE 19 26 10 14 1013.9 - 0.0
23/03:30am 21.7 20.5 17.1 75 2.8 SE 19 26 10 14 1013.7 1013.6 0.0
23/03:00am 22.0 21.2 17.2 74 2.9 SE 17 24 9 13 1013.8 1013.7 0.0
23/02:30am 22.2 22.0 17.6 75 2.8 SE 15 22 8 12 1014.1 1014.0 0.0
23/02:00am 22.6 22.7 18.4 77 2.6 SE 15 24 8 13 1014.2 - 0.0
23/01:30am 23.7 24.5 19.8 79 2.5 SE 15 22 8 12 1014.5 1014.4 0.0
23/01:00am 24.0 23.8 19.7 77 2.8 E 20 30 11 16 1014.7 - 0.0
23/12:30am 24.1 23.9 19.8 77 2.8 E 20 30 11 16 1014.9 1014.8 0.0
23/12:00am 24.1 24.9 20.6 81 2.3 E 17 26 9 14 1015.0 1014.9 0.0
 
Date/Time
CST
Temp
°C
App
Temp
°C
Dew
Point
Rel
Hum
%
Delta-T
°C
Wind Press
QNH
hPa
Press
MSL
hPa
Rain
since 9 am
mm
Dir
 
Spd
km/h
Gust
km/h
Spd
kts
Gust
kts
22/11:30pm 24.0 26.2 20.5 81 2.3 ENE 9 20 5 11 1015.0 1014.9 0.0
22/11:00pm 23.8 26.0 20.3 81 2.3 E 9 15 5 8 1015.1 - 0.0
22/10:30pm 23.6 26.3 20.3 82 2.1 ENE 6 9 3 5 1015.2 1015.1 0.0
22/10:00pm 23.1 26.2 20.2 84 1.9 ENE 4 7 2 4 1014.9 - 0.0
22/09:30pm 22.6 25.1 19.9 85 1.7 ENE 6 7 3 4 1014.7 1014.6 0.0
22/09:00pm 22.3 24.9 19.3 83 1.9 NE 4 6 2 3 1014.5 1014.4 0.0
22/08:30pm 22.5 25.0 19.1 81 2.2 NE 4 7 2 4 1014.2 1014.1 0.0
22/08:00pm 22.8 25.2 18.8 78 2.5 NE 4 6 2 3 1014.0 - 0.0
22/07:30pm 23.4 25.8 18.9 76 2.9 NE 4 7 2 4 1013.7 1013.6 0.0
22/07:00pm 24.1 26.1 18.7 72 3.4 NE 6 9 3 5 1013.5 - 0.0
22/06:30pm 24.6 26.3 18.5 69 3.9 ENE 7 17 4 9 1013.2 1013.1 0.0
22/06:00pm 25.2 26.0 18.2 65 4.4 ENE 11 19 6 10 1013.2 1013.1 0.0
22/05:30pm 25.6 26.1 17.5 61 5.1 ENE 11 19 6 10 1013.2 1013.1 0.0
22/05:00pm 26.1 26.4 18.0 61 5.1 ENE 13 24 7 13 1013.0 - 0.0
22/04:30pm 26.4 26.2 17.7 58 5.5 E 15 22 8 12 1013.0 1012.9 0.0
22/04:00pm 26.7 26.2 17.8 58 5.6 E 17 26 9 14 1012.9 - 0.0
22/03:30pm 26.4 25.4 18.0 60 5.3 E 20 30 11 16 1013.0 1012.9 0.0
22/03:00pm 25.3 24.3 18.0 64 4.6 E 20 33 11 18 1013.1 1013.0 0.0
22/02:30pm 26.0 24.8 17.6 60 5.3 E 20 33 11 18 1013.4 1013.3 0.0
22/02:00pm 27.1 25.9 18.4 59 5.5 E 22 32 12 17 1013.7 - 0.0
22/01:30pm 27.5 25.5 17.4 54 6.3 E 24 32 13 17 1014.2 1014.1 0.0
22/01:00pm 27.1 25.4 17.3 55 6.1 E 22 30 12 16 1014.7 - 0.0
22/12:30pm 27.1 25.1 17.3 55 6.1 E 24 35 13 19 1015.2 1015.1 0.0
22/12:00pm 26.8 24.9 17.6 57 5.8 E 24 35 13 19 1015.7 1015.6 0.0
22/11:30am 26.3 24.3 17.4 58 5.6 ESE 24 32 13 17 1016.1 1016.0 0.0
22/11:00am 25.5 24.1 17.9 63 4.8 E 22 32 12 17 1016.4 - 0.0
22/10:30am 25.2 23.8 18.9 68 4.0 E 24 30 13 16 1016.8 1016.7 0.0
22/10:00am 24.6 24.1 19.2 72 3.5 ESE 20 28 11 15 1017.1 - 0.0
22/09:30am 23.0 22.5 19.0 78 2.5 ESE 20 28 11 15 1017.2 1017.1 0.0
22/09:00am 22.8 21.4 18.8 78 2.5 ESE 24 32 13 17 1017.1 1017.0 0.0
22/08:30am 22.5 21.9 18.9 80 2.3 ESE 20 30 11 16 1017.0 1016.9 0.0
22/08:00am 21.5 21.1 18.9 85 1.6 SE 19 26 10 14 1016.7 - 0.0
22/07:30am 20.9 21.2 18.8 88 1.3 ESE 15 19 8 10 1016.5 1016.4 0.0
22/07:00am 20.8 20.6 18.6 87 1.4 ESE 17 26 9 14 1016.2 - 0.0
22/06:30am 21.0 20.6 18.8 87 1.4 ESE 19 26 10 14 1015.9 1015.8 0.0
22/06:00am 21.2 20.7 18.6 85 1.6 ESE 19 24 10 13 1015.6 1015.5 0.0
22/05:30am 21.3 20.7 18.5 84 1.8 ESE 19 28 10 15 1015.5 1015.4 0.0
22/05:00am 21.5 20.6 18.3 82 2.0 ESE 20 30 11 16 1015.3 - 0.0
22/04:30am 21.7 20.8 18.1 80 2.2 ESE 20 30 11 16 1015.3 1015.2 0.0
22/04:00am 22.0 20.8 18.4 80 2.3 ESE 22 33 12 18 1015.3 - 0.0
22/03:30am 22.2 20.9 18.2 78 2.5 ESE 22 32 12 17 1015.3 1015.2 0.0
22/03:00am 22.4 20.6 17.8 75 2.9 ESE 24 32 13 17 1015.5 1015.4 0.0
22/02:30am 22.7 21.2 17.6 73 3.2 ESE 22 32 12 17 1015.7 1015.6 0.0
22/02:00am 23.0 21.8 18.3 75 3.0 ESE 22 33 12 18 1015.6 - 0.0
22/01:30am 23.2 23.0 19.4 79 2.4 ESE 19 26 10 14 1015.5 1015.4 0.0
22/01:00am 23.1 25.1 20.8 87 1.5 SE 11 15 6 8 1015.7 - 0.0
22/12:30am 23.4 25.8 20.9 86 1.6 ESE 9 11 5 6 1015.8 1015.7 0.0
22/12:00am 23.9 26.1 21.2 85 1.8 E 11 15 6 8 1015.9 1015.8 0.0
 
Date/Time
CST
Temp
°C
App
Temp
°C
Dew
Point
Rel
Hum
%
Delta-T
°C
Wind Press
QNH
hPa
Press
MSL
hPa
Rain
since 9 am
mm
Dir
 
Spd
km/h
Gust
km/h
Spd
kts
Gust
kts
21/11:30pm 23.8 26.3 21.1 85 1.8 E 9 13 5 7 1015.9 1015.8 0.0
21/11:00pm 23.7 26.6 21.0 85 1.8 E 7 11 4 6 1015.9 - 0.0
21/10:30pm 23.5 26.4 20.6 84 1.9 E 6 9 3 5 1016.0 1015.9 0.0
21/10:00pm 23.7 26.6 20.6 83 2.0 ENE 6 9 3 5 1016.1 - 0.0
21/09:30pm 23.7 26.3 20.4 82 2.1 ENE 7 9 4 5 1016.0 1015.9 0.0
21/09:00pm 23.7 26.5 20.4 82 2.1 ENE 6 9 3 5 1015.9 1015.8 0.0
21/08:30pm 23.6 26.5 19.9 80 2.4 ENE 4 6 2 3 1015.7 1015.6 0.0
21/08:00pm 23.9 26.4 19.8 78 2.6 ENE 6 9 3 5 1015.3 - 0.0
21/07:30pm 24.1 26.3 19.6 76 2.9 ENE 7 11 4 6 1015.0 1014.9 0.0
21/07:00pm 24.2 26.4 19.5 75 3.0 ENE 7 15 4 8 1014.6 - 0.0
21/06:30pm 24.5 25.4 19.3 73 3.3 ENE 13 19 7 10 1014.1 1014.0 0.0
21/06:00pm 25.1 25.4 18.8 68 4.0 ENE 15 28 8 15 1013.7 1013.6 0.0
21/05:30pm 25.6 26.2 18.5 65 4.5 ENE 13 26 7 14 1013.4 1013.3 0.0
21/05:00pm 25.9 24.8 17.3 59 5.4 ENE 19 30 10 16 1013.4 - 0.0
21/04:30pm 26.5 25.2 16.7 55 6.1 ENE 19 30 10 16 1013.4 1013.3 0.0
21/04:00pm 27.0 25.3 15.7 50 6.9 ENE 19 32 10 17 1013.3 - 0.0
21/03:30pm 27.7 26.6 16.3 49 7.1 E 17 30 9 16 1013.3 1013.2 0.0
21/03:00pm 27.3 25.7 16.0 50 7.0 E 19 30 10 16 1013.3 1013.2 0.0
21/02:30pm 28.0 26.1 15.3 46 7.7 E 19 30 10 16 1013.6 1013.5 0.0
21/02:00pm 27.6 26.0 15.9 49 7.2 E 19 30 10 16 1014.0 - 0.0
21/01:30pm 27.4 25.9 16.4 51 6.8 E 19 28 10 15 1014.3 1014.2 0.0
21/01:00pm 27.9 27.6 18.3 56 6.1 E 17 26 9 14 1014.7 - 0.0
21/12:30pm 27.2 27.0 17.7 56 6.0 E 15 22 8 12 1015.2 1015.1 0.0
21/12:00pm 26.7 26.2 17.8 58 5.6 E 17 24 9 13 1015.6 1015.5 0.0
21/11:30am 26.1 25.7 18.0 61 5.1 E 17 22 9 12 1016.0 1015.9 0.0
21/11:00am 25.6 26.0 19.0 67 4.2 E 15 20 8 11 1016.3 - 0.0
21/10:30am 24.9 24.7 18.6 68 4.0 ESE 17 22 9 12 1016.4 1016.3 0.0
21/10:00am 24.3 23.7 18.5 70 3.7 ESE 19 24 10 13 1016.6 - 0.0
21/09:30am 23.7 23.5 18.6 73 3.2 ESE 17 22 9 12 1016.6 1016.5 0.0
21/09:00am 22.9 22.6 18.2 75 2.9 SE 17 24 9 13 1016.6 1016.5 0.0
21/08:30am 22.4 22.4 18.0 76 2.7 SE 15 20 8 11 1016.6 1016.5 0.0
21/08:00am 21.8 22.1 18.0 79 2.4 SE 13 19 7 10 1016.2 - 0.0
21/07:30am 21.0 21.3 18.0 83 1.9 SE 13 19 7 10 1015.9 1015.8 0.0
21/07:00am 20.6 20.8 17.6 83 1.8 SE 13 20 7 11 1015.7 - 0.0
21/06:30am 20.7 20.8 17.5 82 2.0 SE 13 19 7 10 1015.4 1015.3 0.0
21/06:00am 21.1 20.9 17.7 81 2.1 SE 15 22 8 12 1015.2 1015.1 0.0
21/05:30am 21.1 20.4 17.3 79 2.3 SE 17 22 9 12 1015.1 1015.0 0.0
21/05:00am 21.4 20.7 17.4 78 2.5 ESE 17 22 9 12 1015.0 - 0.0
21/04:30am 21.6 20.5 17.2 76 2.7 ESE 19 26 10 14 1015.1 1015.0 0.0
21/04:00am 21.8 20.7 17.2 75 2.8 ESE 19 28 10 15 1015.1 - 0.0
21/03:30am 22.0 20.7 17.2 74 2.9 ESE 20 28 11 15 1015.2 1015.1 0.0
21/03:00am 22.4 21.2 17.1 72 3.3 ESE 19 26 10 14 1015.2 1015.1 0.0
21/02:30am 22.6 21.5 17.7 74 3.0 ESE 20 26 11 14 1015.5 1015.4 0.0
21/02:00am 23.1 21.9 18.4 75 3.0 ESE 22 32 12 17 1015.4 - 0.0
21/01:30am 23.4 22.5 19.1 77 2.7 ESE 22 32 12 17 1015.4 1015.3 0.0
21/01:00am 23.9 22.1 20.4 81 2.3 E 30 41 16 22 1015.6 - 0.0
21/12:30am 24.4 24.4 20.1 77 2.8 E 20 33 11 18 1015.6 1015.5 0.0
21/12:00am 24.3 26.6 21.4 84 1.9 E 11 22 6 12 1015.5 1015.4 0.0
 
Date/Time
CST
Temp
°C
App
Temp
°C
Dew
Point
Rel
Hum
%
Delta-T
°C
Wind Press
QNH
hPa
Press
MSL
hPa
Rain
since 9 am
mm
Dir
 
Spd
km/h
Gust
km/h
Spd
kts
Gust
kts
20/11:30pm 24.1 26.3 21.2 84 1.9 E 11 17 6 9 1015.5 1015.4 0.0
20/11:00pm 24.1 25.8 21.0 83 2.0 E 13 22 7 12 1015.4 - 0.0
20/10:30pm 24.1 26.2 21.0 83 2.0 E 11 17 6 9 1015.4 1015.3 0.0
20/10:00pm 23.6 26.4 20.5 83 2.0 ENE 6 9 3 5 1015.4 - 0.0
20/09:30pm 23.5 26.1 20.0 81 2.3 ENE 6 9 3 5 1015.1 1015.0 0.0
20/09:00pm 23.4 25.9 19.8 80 2.3 E 6 9 3 5 1014.8 1014.7 0.0
20/08:30pm 23.6 26.0 19.7 79 2.5 ENE 6 7 3 4 1014.5 1014.4 0.0
20/08:00pm 23.7 26.1 19.6 78 2.6 ENE 6 9 3 5 1014.3 - 0.0
20/07:30pm 23.9 26.2 19.4 76 2.9 ENE 6 9 3 5 1014.0 1013.9 0.0
20/07:00pm 24.1 26.2 19.0 73 3.2 ENE 6 13 3 7 1013.7 - 0.0
20/06:30pm 24.6 26.1 18.1 67 4.1 ENE 7 13 4 7 1013.3 1013.2 0.0
20/06:00pm 25.4 25.8 17.3 61 5.0 ENE 11 19 6 10 1013.1 1013.0 0.0
20/05:30pm 26.0 26.5 17.4 59 5.4 ENE 11 17 6 9 1013.0 1012.9 0.0
20/05:00pm 26.3 26.2 17.9 60 5.3 ENE 15 24 8 13 1013.0 - 0.0
20/04:30pm 26.1 25.9 17.7 60 5.3 ENE 15 26 8 14 1013.1 1013.0 0.0
20/04:00pm 26.2 25.4 18.1 61 5.1 ENE 19 30 10 16 1013.2 - 0.0
20/03:30pm 27.1 26.3 18.4 59 5.5 E 20 33 11 18 1013.4 1013.3 0.0
20/03:00pm 26.7 25.5 17.5 57 5.8 E 20 37 11 20 1013.6 1013.5 0.0
20/02:30pm 26.4 25.5 16.9 56 5.9 E 17 28 9 15 1013.7 1013.6 0.0
20/02:00pm 26.8 26.0 17.0 55 6.1 E 17 26 9 14 1013.9 - 0.0
20/01:30pm 26.5 25.7 18.1 60 5.3 E 19 32 10 17 1014.3 1014.2 0.0
20/01:00pm 26.0 25.9 18.7 64 4.7 E 17 24 9 13 1014.9 - 0.0
20/12:30pm 26.7 27.3 18.6 61 5.2 E 13 20 7 11 1015.3 1015.2 0.0
20/12:00pm 26.7 27.1 19.1 63 4.9 E 15 20 8 11 1015.7 1015.6 0.0
20/11:30am 26.3 26.0 18.2 61 5.1 E 17 22 9 12 1016.1 1016.0 0.0
20/11:00am 25.8 26.0 17.7 61 5.1 E 13 19 7 10 1016.4 - 0.0
20/10:30am 25.0 24.5 17.7 64 4.6 ESE 17 24 9 13 1016.9 1016.8 0.0
20/10:00am 25.0 24.5 17.0 61 5.0 SE 15 20 8 11 1017.2 - 0.0
20/09:30am 24.1 23.5 16.6 63 4.6 ESE 15 19 8 10 1017.3 1017.2 0.0
20/09:00am 23.6 23.3 17.3 67 3.9 ESE 15 20 8 11 1017.3 1017.2 0.0
20/08:30am 22.7 22.1 16.7 69 3.7 ESE 15 24 8 13 1017.0 1016.9 0.0
20/08:00am 21.9 21.5 17.1 74 2.9 SE 15 20 8 11 1016.6 - 0.0
20/07:30am 21.1 21.5 17.3 79 2.3 ESE 11 17 6 9 1016.3 1016.2 0.0

Other Formats:

Comma delimited format used in spreadsheet applications
http://www.bom.gov.au/fwo/IDD60801/IDD60801.94139.axf

JavaScript Object Notation format (JSON) in row-major order
http://www.bom.gov.au/fwo/IDD60801/IDD60801.94139.json